Pagina principală
METAR-TAF:

METAR-TAF

Aeroporturi :

Claremore, Oklahoma, Statele Unite ale Americii

Latitudine: 36-17-40N, longitudine: 095-28-47W, elevație: 221 m

Observații meteo curente

Raportul a fost făcut în urmă cu 25 de minute, la 16:15 UTC
Vânt 6 kt de la Sud/Sud-est
Temperatură 26°C
Umiditate 84%
Presiune 1012 hPa
Vizibilitate: 16.1 km
Cer senin

METAR: KGCM 181615Z AUTO 16006KT 10SM CLR 26/23 A2989 RMK AO2

Ora: 11:40 (16:40 UTC)


TAF: lipsă

Observații și prognoze meteo pentru peste 4.000 de aeroporturi (rapoarte METAR și TAF).

Stațiile disponibile sunt reprezentate pe hartă prin puncte galbene și roșii.

Țineți indicatorul mouse-ului pe punctul dorit pentru a vedea denumirea stației.

Apoi, faceți clic pentru a vedea observațiile și prognozele meteorologice.

Pentru a schimba harta: Pentru mărire, faceți clic pe butoanele verzi cu cruce neagră; pentru micșorare, pe butonul verde cu o liniuță; pentru hărți învecinate, pe săgețile verzi.


METAR-TAF: